sensor_id;sensor_type;location;lat;lon;timestamp;P1;durP1;ratioP1;P2;durP2;ratioP2
40164;SDS011;25882;51.120;17.248;2022-10-16T00:01:45;14.60;;;8.38;;
40164;SDS011;25882;51.120;17.248;2022-10-16T00:04:14;14.77;;;9.70;;
40164;SDS011;25882;51.120;17.248;2022-10-16T00:06:42;14.63;;;9.02;;
40164;SDS011;25882;51.120;17.248;2022-10-16T00:09:10;14.52;;;8.35;;
40164;SDS011;25882;51.120;17.248;2022-10-16T00:11:38;12.40;;;7.95;;
40164;SDS011;25882;51.120;17.248;2022-10-16T00:14:06;12.43;;;8.00;;
40164;SDS011;25882;51.120;17.248;2022-10-16T00:16:33;11.65;;;7.28;;
40164;SDS011;25882;51.120;17.248;2022-10-16T00:19:00;13.70;;;8.50;;
40164;SDS011;25882;51.120;17.248;2022-10-16T00:21:29;13.93;;;7.57;;
40164;SDS011;25882;51.120;17.248;2022-10-16T00:23:56;10.93;;;7.75;;
40164;SDS011;25882;51.120;17.248;2022-10-16T00:26:26;10.07;;;7.13;;
40164;SDS011;25882;51.120;17.248;2022-10-16T00:28:54;11.25;;;6.75;;
40164;SDS011;25882;51.120;17.248;2022-10-16T00:31:21;10.63;;;6.40;;
40164;SDS011;25882;51.120;17.248;2022-10-16T00:33:48;8.45;;;5.95;;
40164;SDS011;25882;51.120;17.248;2022-10-16T00:36:17;9.15;;;6.55;;
40164;SDS011;25882;51.120;17.248;2022-10-16T00:38:46;9.95;;;6.57;;
40164;SDS011;25882;51.120;17.248;2022-10-16T00:41:14;9.00;;;6.25;;
40164;SDS011;25882;51.120;17.248;2022-10-16T00:43:43;8.75;;;5.95;;
40164;SDS011;25882;51.120;17.248;2022-10-16T00:46:14;8.88;;;5.90;;
40164;SDS011;25882;51.120;17.248;2022-10-16T00:48:42;8.00;;;5.07;;
40164;SDS011;25882;51.120;17.248;2022-10-16T00:51:10;8.35;;;5.88;;
40164;SDS011;25882;51.120;17.248;2022-10-16T00:53:38;7.70;;;5.70;;
40164;SDS011;25882;51.120;17.248;2022-10-16T00:56:08;9.95;;;6.00;;
40164;SDS011;25882;51.120;17.248;2022-10-16T00:58:35;8.63;;;6.55;;
40164;SDS011;25882;51.120;17.248;2022-10-16T01:01:03;9.88;;;6.43;;
40164;SDS011;25882;51.120;17.248;2022-10-16T01:03:31;10.30;;;6.70;;
40164;SDS011;25882;51.120;17.248;2022-10-16T01:06:03;9.20;;;5.72;;
40164;SDS011;25882;51.120;17.248;2022-10-16T01:08:39;9.50;;;6.63;;
40164;SDS011;25882;51.120;17.248;2022-10-16T01:11:15;9.43;;;6.60;;
40164;SDS011;25882;51.120;17.248;2022-10-16T01:13:46;15.13;;;7.00;;
40164;SDS011;25882;51.120;17.248;2022-10-16T01:16:18;10.88;;;7.20;;
40164;SDS011;25882;51.120;17.248;2022-10-16T01:18:50;7.88;;;6.35;;
40164;SDS011;25882;51.120;17.248;2022-10-16T01:21:20;10.68;;;6.57;;
40164;SDS011;25882;51.120;17.248;2022-10-16T01:23:51;9.07;;;5.78;;
40164;SDS011;25882;51.120;17.248;2022-10-16T01:26:31;8.98;;;6.32;;
40164;SDS011;25882;51.120;17.248;2022-10-16T01:29:07;11.90;;;6.47;;
40164;SDS011;25882;51.120;17.248;2022-10-16T01:31:37;9.82;;;6.90;;
40164;SDS011;25882;51.120;17.248;2022-10-16T01:34:06;13.97;;;6.27;;
40164;SDS011;25882;51.120;17.248;2022-10-16T01:36:38;10.68;;;6.55;;
40164;SDS011;25882;51.120;17.248;2022-10-16T01:39:06;7.80;;;5.97;;
40164;SDS011;25882;51.120;17.248;2022-10-16T01:41:33;9.95;;;6.72;;
40164;SDS011;25882;51.120;17.248;2022-10-16T01:44:02;9.90;;;6.78;;
40164;SDS011;25882;51.120;17.248;2022-10-16T01:46:34;10.32;;;6.20;;
40164;SDS011;25882;51.120;17.248;2022-10-16T01:51:29;9.18;;;5.85;;
40164;SDS011;25882;51.120;17.248;2022-10-16T01:53:58;9.75;;;5.72;;
40164;SDS011;25882;51.120;17.248;2022-10-16T01:56:28;10.35;;;6.63;;
40164;SDS011;25882;51.120;17.248;2022-10-16T01:59:00;8.27;;;6.18;;
40164;SDS011;25882;51.120;17.248;2022-10-16T02:01:34;11.13;;;6.00;;
40164;SDS011;25882;51.120;17.248;2022-10-16T02:04:03;9.55;;;6.47;;
40164;SDS011;25882;51.120;17.248;2022-10-16T02:06:29;12.98;;;7.10;;
40164;SDS011;25882;51.120;17.248;2022-10-16T02:08:55;11.05;;;6.60;;
40164;SDS011;25882;51.120;17.248;2022-10-16T02:11:21;7.68;;;6.03;;
40164;SDS011;25882;51.120;17.248;2022-10-16T02:13:48;10.32;;;5.95;;
40164;SDS011;25882;51.120;17.248;2022-10-16T02:16:15;8.43;;;6.45;;
40164;SDS011;25882;51.120;17.248;2022-10-16T02:18:43;9.82;;;6.90;;
40164;SDS011;25882;51.120;17.248;2022-10-16T02:21:12;7.90;;;6.22;;
40164;SDS011;25882;51.120;17.248;2022-10-16T02:23:42;12.65;;;6.53;;
40164;SDS011;25882;51.120;17.248;2022-10-16T02:26:12;10.57;;;6.40;;
40164;SDS011;25882;51.120;17.248;2022-10-16T02:28:39;9.02;;;6.07;;
40164;SDS011;25882;51.120;17.248;2022-10-16T02:31:08;8.07;;;5.97;;
40164;SDS011;25882;51.120;17.248;2022-10-16T02:33:35;8.32;;;5.90;;
40164;SDS011;25882;51.120;17.248;2022-10-16T02:36:05;9.38;;;6.75;;
40164;SDS011;25882;51.120;17.248;2022-10-16T02:38:31;8.60;;;6.90;;
40164;SDS011;25882;51.120;17.248;2022-10-16T02:40:57;10.30;;;6.88;;
40164;SDS011;25882;51.120;17.248;2022-10-16T02:43:24;11.40;;;6.75;;
40164;SDS011;25882;51.120;17.248;2022-10-16T02:45:50;9.93;;;7.07;;
40164;SDS011;25882;51.120;17.248;2022-10-16T02:48:16;9.70;;;6.88;;
40164;SDS011;25882;51.120;17.248;2022-10-16T02:50:42;32.00;;;8.27;;
40164;SDS011;25882;51.120;17.248;2022-10-16T02:53:09;11.48;;;7.55;;
40164;SDS011;25882;51.120;17.248;2022-10-16T02:55:35;9.60;;;7.45;;
40164;SDS011;25882;51.120;17.248;2022-10-16T02:58:01;11.07;;;7.40;;
40164;SDS011;25882;51.120;17.248;2022-10-16T03:00:27;14.65;;;7.38;;
40164;SDS011;25882;51.120;17.248;2022-10-16T03:02:54;11.02;;;7.22;;
40164;SDS011;25882;51.120;17.248;2022-10-16T03:05:20;11.10;;;6.93;;
40164;SDS011;25882;51.120;17.248;2022-10-16T03:07:45;9.43;;;6.15;;
40164;SDS011;25882;51.120;17.248;2022-10-16T03:10:13;9.30;;;7.10;;
40164;SDS011;25882;51.120;17.248;2022-10-16T03:12:39;11.73;;;7.18;;
40164;SDS011;25882;51.120;17.248;2022-10-16T03:15:05;9.38;;;6.90;;
40164;SDS011;25882;51.120;17.248;2022-10-16T03:17:32;10.73;;;6.70;;
40164;SDS011;25882;51.120;17.248;2022-10-16T03:19:58;12.70;;;7.63;;
40164;SDS011;25882;51.120;17.248;2022-10-16T03:22:24;10.57;;;6.97;;
40164;SDS011;25882;51.120;17.248;2022-10-16T03:24:50;10.65;;;7.30;;
40164;SDS011;25882;51.120;17.248;2022-10-16T03:27:18;10.57;;;6.97;;
40164;SDS011;25882;51.120;17.248;2022-10-16T03:29:44;10.60;;;7.43;;
40164;SDS011;25882;51.120;17.248;2022-10-16T03:32:10;11.55;;;6.93;;
40164;SDS011;25882;51.120;17.248;2022-10-16T03:34:36;10.57;;;7.07;;
40164;SDS011;25882;51.120;17.248;2022-10-16T03:37:02;10.82;;;7.00;;
40164;SDS011;25882;51.120;17.248;2022-10-16T03:39:28;10.27;;;7.10;;
40164;SDS011;25882;51.120;17.248;2022-10-16T03:41:54;12.10;;;7.45;;
40164;SDS011;25882;51.120;17.248;2022-10-16T03:44:21;12.70;;;7.55;;
40164;SDS011;25882;51.120;17.248;2022-10-16T03:46:47;12.02;;;7.93;;
40164;SDS011;25882;51.120;17.248;2022-10-16T03:49:13;10.20;;;7.70;;
40164;SDS011;25882;51.120;17.248;2022-10-16T03:51:39;9.57;;;7.55;;
40164;SDS011;25882;51.120;17.248;2022-10-16T03:54:05;13.00;;;7.40;;
40164;SDS011;25882;51.120;17.248;2022-10-16T03:56:31;11.80;;;8.18;;
40164;SDS011;25882;51.120;17.248;2022-10-16T03:58:57;11.07;;;7.28;;
40164;SDS011;25882;51.120;17.248;2022-10-16T04:01:24;10.77;;;7.78;;
40164;SDS011;25882;51.120;17.248;2022-10-16T04:03:51;11.48;;;7.15;;
40164;SDS011;25882;51.120;17.248;2022-10-16T04:06:16;10.52;;;7.68;;
40164;SDS011;25882;51.120;17.248;2022-10-16T04:08:42;12.55;;;6.93;;
40164;SDS011;25882;51.120;17.248;2022-10-16T04:11:08;9.80;;;7.28;;
40164;SDS011;25882;51.120;17.248;2022-10-16T04:13:34;12.60;;;6.97;;
40164;SDS011;25882;51.120;17.248;2022-10-16T04:16:00;9.80;;;6.53;;
40164;SDS011;25882;51.120;17.248;2022-10-16T04:18:28;11.65;;;7.80;;
40164;SDS011;25882;51.120;17.248;2022-10-16T04:20:54;10.48;;;7.03;;
40164;SDS011;25882;51.120;17.248;2022-10-16T04:23:20;10.18;;;7.13;;
40164;SDS011;25882;51.120;17.248;2022-10-16T04:25:46;10.75;;;7.05;;
40164;SDS011;25882;51.120;17.248;2022-10-16T04:28:12;9.50;;;6.70;;
40164;SDS011;25882;51.120;17.248;2022-10-16T04:30:38;11.52;;;7.05;;
40164;SDS011;25882;51.120;17.248;2022-10-16T04:33:04;11.63;;;6.90;;
40164;SDS011;25882;51.120;17.248;2022-10-16T04:35:32;12.05;;;7.18;;
40164;SDS011;25882;51.120;17.248;2022-10-16T04:37:58;14.85;;;7.65;;
40164;SDS011;25882;51.120;17.248;2022-10-16T04:40:23;11.25;;;7.80;;
40164;SDS011;25882;51.120;17.248;2022-10-16T04:42:50;11.65;;;7.45;;
40164;SDS011;25882;51.120;17.248;2022-10-16T04:45:15;10.40;;;7.70;;
40164;SDS011;25882;51.120;17.248;2022-10-16T04:47:42;14.10;;;7.95;;
40164;SDS011;25882;51.120;17.248;2022-10-16T04:50:08;12.63;;;8.02;;
40164;SDS011;25882;51.120;17.248;2022-10-16T04:52:35;10.10;;;7.10;;
40164;SDS011;25882;51.120;17.248;2022-10-16T04:55:01;11.60;;;7.85;;
40164;SDS011;25882;51.120;17.248;2022-10-16T04:57:28;14.20;;;8.60;;
40164;SDS011;25882;51.120;17.248;2022-10-16T04:59:54;12.60;;;9.00;;
40164;SDS011;25882;51.120;17.248;2022-10-16T05:02:20;15.77;;;10.00;;
40164;SDS011;25882;51.120;17.248;2022-10-16T05:04:46;15.38;;;9.88;;
40164;SDS011;25882;51.120;17.248;2022-10-16T05:07:12;16.60;;;9.70;;
40164;SDS011;25882;51.120;17.248;2022-10-16T05:09:39;16.50;;;10.02;;
40164;SDS011;25882;51.120;17.248;2022-10-16T05:12:05;16.77;;;9.70;;
40164;SDS011;25882;51.120;17.248;2022-10-16T05:14:31;13.98;;;9.35;;
40164;SDS011;25882;51.120;17.248;2022-10-16T05:16:58;17.27;;;9.75;;
40164;SDS011;25882;51.120;17.248;2022-10-16T05:19:24;16.45;;;9.32;;
40164;SDS011;25882;51.120;17.248;2022-10-16T05:21:50;16.77;;;9.88;;
40164;SDS011;25882;51.120;17.248;2022-10-16T05:24:16;14.70;;;9.50;;
40164;SDS011;25882;51.120;17.248;2022-10-16T05:26:44;14.55;;;9.50;;
40164;SDS011;25882;51.120;17.248;2022-10-16T05:29:09;14.18;;;9.68;;
40164;SDS011;25882;51.120;17.248;2022-10-16T05:31:35;17.42;;;9.80;;
40164;SDS011;25882;51.120;17.248;2022-10-16T05:34:01;14.60;;;9.18;;
40164;SDS011;25882;51.120;17.248;2022-10-16T05:36:28;17.60;;;10.98;;
40164;SDS011;25882;51.120;17.248;2022-10-16T05:38:53;16.05;;;10.23;;
40164;SDS011;25882;51.120;17.248;2022-10-16T05:41:20;16.00;;;10.18;;
40164;SDS011;25882;51.120;17.248;2022-10-16T05:43:48;15.52;;;10.90;;
40164;SDS011;25882;51.120;17.248;2022-10-16T05:46:15;18.80;;;11.05;;
40164;SDS011;25882;51.120;17.248;2022-10-16T05:48:41;20.92;;;10.88;;
40164;SDS011;25882;51.120;17.248;2022-10-16T05:51:09;16.30;;;10.43;;
40164;SDS011;25882;51.120;17.248;2022-10-16T05:53:35;16.80;;;9.73;;
40164;SDS011;25882;51.120;17.248;2022-10-16T05:56:02;21.90;;;12.00;;
40164;SDS011;25882;51.120;17.248;2022-10-16T05:58:29;16.48;;;10.43;;
40164;SDS011;25882;51.120;17.248;2022-10-16T06:00:57;15.85;;;10.73;;
40164;SDS011;25882;51.120;17.248;2022-10-16T06:03:23;19.85;;;11.60;;
40164;SDS011;25882;51.120;17.248;2022-10-16T06:05:49;17.15;;;11.10;;
40164;SDS011;25882;51.120;17.248;2022-10-16T06:08:15;16.08;;;10.35;;
40164;SDS011;25882;51.120;17.248;2022-10-16T06:10:41;20.25;;;10.93;;
40164;SDS011;25882;51.120;17.248;2022-10-16T06:13:07;16.33;;;10.10;;
40164;SDS011;25882;51.120;17.248;2022-10-16T06:15:33;15.98;;;9.73;;
40164;SDS011;25882;51.120;17.248;2022-10-16T06:18:01;13.75;;;9.90;;
40164;SDS011;25882;51.120;17.248;2022-10-16T06:20:27;16.98;;;10.52;;
40164;SDS011;25882;51.120;17.248;2022-10-16T06:22:53;14.18;;;9.05;;
40164;SDS011;25882;51.120;17.248;2022-10-16T06:25:19;15.13;;;10.10;;
40164;SDS011;25882;51.120;17.248;2022-10-16T06:27:44;14.30;;;9.73;;
40164;SDS011;25882;51.120;17.248;2022-10-16T06:30:10;13.57;;;9.70;;
40164;SDS011;25882;51.120;17.248;2022-10-16T06:32:36;15.25;;;9.13;;
40164;SDS011;25882;51.120;17.248;2022-10-16T06:35:05;15.13;;;10.18;;
40164;SDS011;25882;51.120;17.248;2022-10-16T06:37:30;12.93;;;9.45;;
40164;SDS011;25882;51.120;17.248;2022-10-16T06:39:56;12.10;;;8.55;;
40164;SDS011;25882;51.120;17.248;2022-10-16T06:42:22;11.82;;;7.80;;
40164;SDS011;25882;51.120;17.248;2022-10-16T06:44:49;11.77;;;8.25;;
40164;SDS011;25882;51.120;17.248;2022-10-16T06:47:14;12.30;;;8.40;;
40164;SDS011;25882;51.120;17.248;2022-10-16T06:49:40;12.50;;;8.82;;
40164;SDS011;25882;51.120;17.248;2022-10-16T06:52:08;10.10;;;6.82;;
40164;SDS011;25882;51.120;17.248;2022-10-16T06:54:34;11.15;;;7.72;;
40164;SDS011;25882;51.120;17.248;2022-10-16T06:56:59;8.65;;;7.22;;
40164;SDS011;25882;51.120;17.248;2022-10-16T06:59:27;9.63;;;6.15;;
40164;SDS011;25882;51.120;17.248;2022-10-16T07:01:53;7.18;;;5.60;;
40164;SDS011;25882;51.120;17.248;2022-10-16T07:04:19;9.27;;;6.13;;
40164;SDS011;25882;51.120;17.248;2022-10-16T07:06:45;7.88;;;6.03;;
40164;SDS011;25882;51.120;17.248;2022-10-16T07:09:13;7.70;;;6.10;;
40164;SDS011;25882;51.120;17.248;2022-10-16T07:11:39;9.63;;;6.40;;
40164;SDS011;25882;51.120;17.248;2022-10-16T07:14:10;10.50;;;5.82;;
40164;SDS011;25882;51.120;17.248;2022-10-16T07:16:38;9.70;;;6.05;;
40164;SDS011;25882;51.120;17.248;2022-10-16T07:19:04;7.30;;;5.80;;
40164;SDS011;25882;51.120;17.248;2022-10-16T07:21:30;10.68;;;6.63;;
40164;SDS011;25882;51.120;17.248;2022-10-16T07:24:01;7.97;;;5.93;;
40164;SDS011;25882;51.120;17.248;2022-10-16T07:26:29;10.45;;;6.60;;
40164;SDS011;25882;51.120;17.248;2022-10-16T07:28:56;8.45;;;6.78;;
40164;SDS011;25882;51.120;17.248;2022-10-16T07:31:22;7.38;;;5.75;;
40164;SDS011;25882;51.120;17.248;2022-10-16T07:33:49;10.77;;;6.50;;
40164;SDS011;25882;51.120;17.248;2022-10-16T07:36:16;9.18;;;7.07;;
40164;SDS011;25882;51.120;17.248;2022-10-16T07:38:43;10.55;;;7.45;;
40164;SDS011;25882;51.120;17.248;2022-10-16T07:41:10;10.90;;;5.72;;
40164;SDS011;25882;51.120;17.248;2022-10-16T07:43:37;10.60;;;7.05;;
40164;SDS011;25882;51.120;17.248;2022-10-16T07:46:03;9.10;;;6.93;;
40164;SDS011;25882;51.120;17.248;2022-10-16T07:48:30;9.82;;;6.00;;
40164;SDS011;25882;51.120;17.248;2022-10-16T07:50:57;8.43;;;5.95;;
40164;SDS011;25882;51.120;17.248;2022-10-16T07:53:23;9.52;;;6.55;;
40164;SDS011;25882;51.120;17.248;2022-10-16T07:55:49;8.57;;;5.60;;
40164;SDS011;25882;51.120;17.248;2022-10-16T07:58:15;9.25;;;6.35;;
40164;SDS011;25882;51.120;17.248;2022-10-16T08:00:42;8.15;;;6.07;;
40164;SDS011;25882;51.120;17.248;2022-10-16T08:03:08;8.52;;;5.50;;
40164;SDS011;25882;51.120;17.248;2022-10-16T08:05:34;8.68;;;5.20;;
40164;SDS011;25882;51.120;17.248;2022-10-16T08:08:01;8.10;;;5.45;;
40164;SDS011;25882;51.120;17.248;2022-10-16T08:10:27;9.88;;;6.55;;
40164;SDS011;25882;51.120;17.248;2022-10-16T08:12:54;7.70;;;5.20;;
40164;SDS011;25882;51.120;17.248;2022-10-16T08:15:19;6.68;;;5.15;;
40164;SDS011;25882;51.120;17.248;2022-10-16T08:17:54;7.63;;;5.40;;
40164;SDS011;25882;51.120;17.248;2022-10-16T08:20:20;9.05;;;4.97;;
40164;SDS011;25882;51.120;17.248;2022-10-16T08:22:46;7.95;;;5.03;;
40164;SDS011;25882;51.120;17.248;2022-10-16T08:25:12;6.65;;;5.05;;
40164;SDS011;25882;51.120;17.248;2022-10-16T08:27:38;5.50;;;4.78;;
40164;SDS011;25882;51.120;17.248;2022-10-16T08:30:04;6.63;;;5.03;;
40164;SDS011;25882;51.120;17.248;2022-10-16T08:32:31;5.88;;;4.53;;
40164;SDS011;25882;51.120;17.248;2022-10-16T08:34:59;6.53;;;4.95;;
40164;SDS011;25882;51.120;17.248;2022-10-16T08:37:29;7.82;;;4.68;;
40164;SDS011;25882;51.120;17.248;2022-10-16T08:39:55;5.18;;;4.07;;
40164;SDS011;25882;51.120;17.248;2022-10-16T08:42:24;8.10;;;4.82;;
40164;SDS011;25882;51.120;17.248;2022-10-16T08:45:08;5.22;;;3.83;;
40164;SDS011;25882;51.120;17.248;2022-10-16T08:47:45;6.25;;;4.95;;
40164;SDS011;25882;51.120;17.248;2022-10-16T08:50:15;5.78;;;4.53;;
40164;SDS011;25882;51.120;17.248;2022-10-16T08:52:43;5.87;;;4.63;;
40164;SDS011;25882;51.120;17.248;2022-10-16T08:55:10;6.38;;;4.43;;
40164;SDS011;25882;51.120;17.248;2022-10-16T08:57:42;6.47;;;4.38;;
40164;SDS011;25882;51.120;17.248;2022-10-16T09:00:12;6.05;;;3.75;;
40164;SDS011;25882;51.120;17.248;2022-10-16T09:02:39;9.35;;;4.32;;
40164;SDS011;25882;51.120;17.248;2022-10-16T09:05:20;7.40;;;4.40;;
40164;SDS011;25882;51.120;17.248;2022-10-16T09:07:49;4.80;;;3.97;;
40164;SDS011;25882;51.120;17.248;2022-10-16T09:10:21;6.63;;;4.97;;
40164;SDS011;25882;51.120;17.248;2022-10-16T09:12:52;7.60;;;4.82;;
40164;SDS011;25882;51.120;17.248;2022-10-16T09:15:21;5.97;;;4.78;;
40164;SDS011;25882;51.120;17.248;2022-10-16T09:17:53;9.35;;;5.78;;
40164;SDS011;25882;51.120;17.248;2022-10-16T09:20:25;6.55;;;4.88;;
40164;SDS011;25882;51.120;17.248;2022-10-16T09:22:53;6.35;;;4.75;;
40164;SDS011;25882;51.120;17.248;2022-10-16T09:25:21;6.32;;;4.88;;
40164;SDS011;25882;51.120;17.248;2022-10-16T09:27:48;6.13;;;4.70;;
40164;SDS011;25882;51.120;17.248;2022-10-16T09:30:15;6.80;;;4.97;;
40164;SDS011;25882;51.120;17.248;2022-10-16T09:32:41;8.75;;;5.28;;
40164;SDS011;25882;51.120;17.248;2022-10-16T09:35:10;6.60;;;4.55;;
40164;SDS011;25882;51.120;17.248;2022-10-16T09:37:38;7.57;;;5.57;;
40164;SDS011;25882;51.120;17.248;2022-10-16T09:40:05;9.65;;;5.45;;
40164;SDS011;25882;51.120;17.248;2022-10-16T09:42:32;7.43;;;5.30;;
40164;SDS011;25882;51.120;17.248;2022-10-16T09:44:59;7.50;;;5.15;;
40164;SDS011;25882;51.120;17.248;2022-10-16T09:47:26;7.45;;;4.75;;
40164;SDS011;25882;51.120;17.248;2022-10-16T09:49:54;6.97;;;4.70;;
40164;SDS011;25882;51.120;17.248;2022-10-16T09:52:20;5.88;;;3.97;;
40164;SDS011;25882;51.120;17.248;2022-10-16T09:54:52;7.93;;;4.88;;
40164;SDS011;25882;51.120;17.248;2022-10-16T09:57:18;7.18;;;4.88;;
40164;SDS011;25882;51.120;17.248;2022-10-16T09:59:45;9.10;;;4.80;;
40164;SDS011;25882;51.120;17.248;2022-10-16T10:02:11;6.60;;;4.82;;
40164;SDS011;25882;51.120;17.248;2022-10-16T10:04:41;6.43;;;4.85;;
40164;SDS011;25882;51.120;17.248;2022-10-16T10:07:08;6.70;;;4.68;;
40164;SDS011;25882;51.120;17.248;2022-10-16T10:09:42;6.00;;;4.05;;
40164;SDS011;25882;51.120;17.248;2022-10-16T10:12:16;5.78;;;4.25;;
40164;SDS011;25882;51.120;17.248;2022-10-16T10:14:43;5.95;;;4.28;;
40164;SDS011;25882;51.120;17.248;2022-10-16T10:17:12;5.82;;;4.35;;
40164;SDS011;25882;51.120;17.248;2022-10-16T10:19:38;8.75;;;4.43;;
40164;SDS011;25882;51.120;17.248;2022-10-16T10:22:13;6.43;;;3.70;;
40164;SDS011;25882;51.120;17.248;2022-10-16T10:24:39;7.15;;;3.88;;
40164;SDS011;25882;51.120;17.248;2022-10-16T10:27:06;5.90;;;3.75;;
40164;SDS011;25882;51.120;17.248;2022-10-16T10:29:40;4.77;;;3.70;;
40164;SDS011;25882;51.120;17.248;2022-10-16T10:32:12;5.43;;;3.58;;
40164;SDS011;25882;51.120;17.248;2022-10-16T10:37:28;5.18;;;3.65;;
40164;SDS011;25882;51.120;17.248;2022-10-16T10:40:00;4.38;;;2.80;;
40164;SDS011;25882;51.120;17.248;2022-10-16T10:42:28;3.33;;;2.40;;
40164;SDS011;25882;51.120;17.248;2022-10-16T10:45:04;5.13;;;2.70;;
40164;SDS011;25882;51.120;17.248;2022-10-16T10:47:38;3.60;;;2.55;;
40164;SDS011;25882;51.120;17.248;2022-10-16T10:50:10;5.65;;;3.47;;
40164;SDS011;25882;51.120;17.248;2022-10-16T10:52:41;3.93;;;2.97;;
40164;SDS011;25882;51.120;17.248;2022-10-16T10:55:09;3.05;;;2.60;;
40164;SDS011;25882;51.120;17.248;2022-10-16T10:57:39;3.17;;;2.40;;
40164;SDS011;25882;51.120;17.248;2022-10-16T11:00:12;2.85;;;2.30;;
40164;SDS011;25882;51.120;17.248;2022-10-16T11:02:41;4.13;;;2.55;;
40164;SDS011;25882;51.120;17.248;2022-10-16T11:05:21;4.18;;;2.78;;
40164;SDS011;25882;51.120;17.248;2022-10-16T11:07:49;3.78;;;2.20;;
40164;SDS011;25882;51.120;17.248;2022-10-16T11:10:18;5.45;;;2.75;;
40164;SDS011;25882;51.120;17.248;2022-10-16T11:12:46;5.72;;;2.17;;
40164;SDS011;25882;51.120;17.248;2022-10-16T11:15:17;6.00;;;2.38;;
40164;SDS011;25882;51.120;17.248;2022-10-16T11:17:44;3.55;;;2.10;;
40164;SDS011;25882;51.120;17.248;2022-10-16T11:20:13;3.92;;;1.77;;
40164;SDS011;25882;51.120;17.248;2022-10-16T11:22:41;3.30;;;1.75;;
40164;SDS011;25882;51.120;17.248;2022-10-16T11:25:12;1.75;;;1.48;;
40164;SDS011;25882;51.120;17.248;2022-10-16T11:27:39;3.72;;;2.03;;
40164;SDS011;25882;51.120;17.248;2022-10-16T11:30:11;3.47;;;1.48;;
40164;SDS011;25882;51.120;17.248;2022-10-16T11:32:43;1.70;;;1.30;;
40164;SDS011;25882;51.120;17.248;2022-10-16T11:35:12;3.40;;;1.63;;
40164;SDS011;25882;51.120;17.248;2022-10-16T11:37:41;2.45;;;1.40;;
40164;SDS011;25882;51.120;17.248;2022-10-16T11:40:14;2.20;;;1.55;;
40164;SDS011;25882;51.120;17.248;2022-10-16T11:42:43;3.10;;;1.67;;
40164;SDS011;25882;51.120;17.248;2022-10-16T11:45:15;4.67;;;1.80;;
40164;SDS011;25882;51.120;17.248;2022-10-16T11:47:48;3.85;;;2.58;;
40164;SDS011;25882;51.120;17.248;2022-10-16T11:50:19;11.95;;;5.80;;
40164;SDS011;25882;51.120;17.248;2022-10-16T11:52:48;8.75;;;5.35;;
40164;SDS011;25882;51.120;17.248;2022-10-16T11:55:17;7.85;;;5.18;;
40164;SDS011;25882;51.120;17.248;2022-10-16T11:57:45;6.05;;;4.18;;
40164;SDS011;25882;51.120;17.248;2022-10-16T12:00:17;7.07;;;4.70;;
40164;SDS011;25882;51.120;17.248;2022-10-16T12:02:50;8.18;;;4.72;;
40164;SDS011;25882;51.120;17.248;2022-10-16T12:05:19;6.28;;;4.50;;
40164;SDS011;25882;51.120;17.248;2022-10-16T12:07:49;10.07;;;6.13;;
40164;SDS011;25882;51.120;17.248;2022-10-16T12:10:21;7.57;;;4.68;;
40164;SDS011;25882;51.120;17.248;2022-10-16T12:12:47;6.07;;;3.93;;
40164;SDS011;25882;51.120;17.248;2022-10-16T12:15:21;7.28;;;4.75;;
40164;SDS011;25882;51.120;17.248;2022-10-16T12:17:46;8.82;;;5.00;;
40164;SDS011;25882;51.120;17.248;2022-10-16T12:23:03;8.32;;;5.63;;
40164;SDS011;25882;51.120;17.248;2022-10-16T12:25:31;9.05;;;6.45;;
40164;SDS011;25882;51.120;17.248;2022-10-16T12:27:58;11.80;;;6.40;;
40164;SDS011;25882;51.120;17.248;2022-10-16T12:30:25;9.40;;;6.45;;
40164;SDS011;25882;51.120;17.248;2022-10-16T12:32:55;9.07;;;6.40;;
40164;SDS011;25882;51.120;17.248;2022-10-16T12:35:22;10.10;;;6.75;;
40164;SDS011;25882;51.120;17.248;2022-10-16T12:37:49;5.88;;;5.13;;
40164;SDS011;25882;51.120;17.248;2022-10-16T12:40:23;10.27;;;5.60;;
40164;SDS011;25882;51.120;17.248;2022-10-16T12:42:50;8.23;;;5.75;;
40164;SDS011;25882;51.120;17.248;2022-10-16T12:45:23;8.30;;;5.90;;
40164;SDS011;25882;51.120;17.248;2022-10-16T12:47:50;8.05;;;5.75;;
40164;SDS011;25882;51.120;17.248;2022-10-16T12:50:28;7.43;;;5.85;;
40164;SDS011;25882;51.120;17.248;2022-10-16T12:52:56;6.85;;;5.68;;
40164;SDS011;25882;51.120;17.248;2022-10-16T12:55:24;9.32;;;6.32;;
40164;SDS011;25882;51.120;17.248;2022-10-16T12:57:57;10.55;;;6.47;;
40164;SDS011;25882;51.120;17.248;2022-10-16T13:00:28;9.25;;;6.15;;
40164;SDS011;25882;51.120;17.248;2022-10-16T13:03:02;7.13;;;5.93;;
40164;SDS011;25882;51.120;17.248;2022-10-16T13:05:38;9.77;;;6.05;;
40164;SDS011;25882;51.120;17.248;2022-10-16T13:08:16;9.63;;;6.55;;
40164;SDS011;25882;51.120;17.248;2022-10-16T13:10:50;9.57;;;6.93;;
40164;SDS011;25882;51.120;17.248;2022-10-16T13:13:27;9.68;;;6.32;;
40164;SDS011;25882;51.120;17.248;2022-10-16T13:15:59;9.73;;;6.63;;
40164;SDS011;25882;51.120;17.248;2022-10-16T13:18:29;9.07;;;7.03;;
40164;SDS011;25882;51.120;17.248;2022-10-16T13:21:02;9.85;;;7.18;;
40164;SDS011;25882;51.120;17.248;2022-10-16T13:23:32;10.15;;;8.35;;
40164;SDS011;25882;51.120;17.248;2022-10-16T13:26:05;10.73;;;7.93;;
40164;SDS011;25882;51.120;17.248;2022-10-16T13:28:33;11.70;;;7.68;;
40164;SDS011;25882;51.120;17.248;2022-10-16T13:31:00;10.43;;;7.25;;
40164;SDS011;25882;51.120;17.248;2022-10-16T13:33:28;10.88;;;7.68;;
40164;SDS011;25882;51.120;17.248;2022-10-16T13:35:56;10.18;;;7.47;;
40164;SDS011;25882;51.120;17.248;2022-10-16T13:38:23;10.57;;;8.50;;
40164;SDS011;25882;51.120;17.248;2022-10-16T13:40:50;11.85;;;7.82;;
40164;SDS011;25882;51.120;17.248;2022-10-16T13:43:18;11.52;;;7.63;;
40164;SDS011;25882;51.120;17.248;2022-10-16T13:45:52;10.40;;;7.25;;
40164;SDS011;25882;51.120;17.248;2022-10-16T13:48:18;8.85;;;7.53;;
40164;SDS011;25882;51.120;17.248;2022-10-16T13:50:44;9.85;;;7.82;;
40164;SDS011;25882;51.120;17.248;2022-10-16T13:53:12;12.15;;;8.13;;
40164;SDS011;25882;51.120;17.248;2022-10-16T13:55:38;9.63;;;7.57;;
40164;SDS011;25882;51.120;17.248;2022-10-16T13:58:05;8.45;;;7.03;;
40164;SDS011;25882;51.120;17.248;2022-10-16T14:00:33;8.90;;;6.78;;
40164;SDS011;25882;51.120;17.248;2022-10-16T14:03:01;11.05;;;7.38;;
40164;SDS011;25882;51.120;17.248;2022-10-16T14:05:27;10.25;;;7.80;;
40164;SDS011;25882;51.120;17.248;2022-10-16T14:07:53;9.05;;;6.55;;
40164;SDS011;25882;51.120;17.248;2022-10-16T14:10:22;7.28;;;5.82;;
40164;SDS011;25882;51.120;17.248;2022-10-16T14:12:53;9.27;;;6.20;;
40164;SDS011;25882;51.120;17.248;2022-10-16T14:15:20;9.77;;;6.05;;
40164;SDS011;25882;51.120;17.248;2022-10-16T14:17:48;9.23;;;6.10;;
40164;SDS011;25882;51.120;17.248;2022-10-16T14:20:15;8.82;;;6.50;;
40164;SDS011;25882;51.120;17.248;2022-10-16T14:22:42;8.98;;;6.00;;
40164;SDS011;25882;51.120;17.248;2022-10-16T14:28:00;9.63;;;6.35;;
40164;SDS011;25882;51.120;17.248;2022-10-16T14:30:26;8.98;;;6.68;;
40164;SDS011;25882;51.120;17.248;2022-10-16T14:32:55;11.23;;;6.80;;
40164;SDS011;25882;51.120;17.248;2022-10-16T14:35:22;9.52;;;6.90;;
40164;SDS011;25882;51.120;17.248;2022-10-16T14:37:50;9.35;;;6.63;;
40164;SDS011;25882;51.120;17.248;2022-10-16T14:40:17;8.85;;;6.22;;
40164;SDS011;25882;51.120;17.248;2022-10-16T14:42:43;9.07;;;6.80;;
40164;SDS011;25882;51.120;17.248;2022-10-16T14:45:10;9.93;;;7.30;;